Pagrindinis puslapis
METAR-TAF:

METAR-TAF

Oro uostai :

Kajena, Prancūzijos Gviana

platuma: 04-50N, ilguma: 052-22W, Aukštis: 105 m

Dabartinis oras

Ataskaita buvo paskelbta 43 minutes, ne 23:00 UTC
Vėjas 2 kt nuo kintamojo kryptimis
Temperatūra 26°C
Drėgmė 89%
Slėgis 1009 hPa
Matomumas 10 km arba daugiau
nėra debesų žemiau 1500 m ir nėra kamuolinių lietaus debesų

METAR: SOCA 192300Z AUTO VRB02KT CAVOK 26/24 Q1009 NOSIG

Laikas: 20:43 (23:43 UTC)

Prognozė

Ataskaita buvo paskelbta 1 valandą ir 43 minutes, ne 22:00 UTC
Prognozė galioja nuo 20 metu 00 UTC su 20 metu 24 UTC
Vėjas 2 kt nuo kintamojo kryptimis
Matomumas 10 km arba daugiau
Mažai debesys ne aukštis 2000 ft
Nuo 20 metu 1400 UTC
Vėjas 14 kt iš Rytų/Šiaurės Rytų
Matomumas 10 km arba daugiau
Mažai debesys ne aukštis 4000 ft
Nuo 20 metu 2200 UTC
Vėjas 2 kt nuo kintamojo kryptimis
Matomumas 10 km arba daugiau
nėra debesų žemiau 1500 m ir nėra kamuolinių lietaus debesų

TAF: SOCA 192200Z 2000/2024 VRB02KT 9999 FEW020 FM201400 07014KT 9999 FEW040 FM202200 VRB02KT CAVOK

Orai ataskaitas ir orų prognozės (METAR, TAF).

turimą stotys yra geltonos ir raudonos taškus žemėlapyje.

Perkelti pele per norėdami pamatyti stoties vardą.

Tada spustelėkite, norėdami matyti oro stebėjimo ir prognozės.

Norėdami pakeisti žemėlapį: spustelėkite ant žalios mygtukų su juodo kryžiaus žemyn,; žalią mygtuką su brūkšneliu, jei norite nutolinti; arba žalių rodyklių gretimoms žemėlapius.


METAR-TAF: